createdAt,value
2022-09-26T00:01:39.292Z,12.10
2022-09-26T00:04:23.256Z,11.80
2022-09-26T00:06:54.482Z,10.90
2022-09-26T00:09:24.534Z,11.50
2022-09-26T00:11:52.886Z,12.10
2022-09-26T00:14:24.000Z,11.70
2022-09-26T00:16:53.126Z,11.70
2022-09-26T00:19:22.043Z,11.10
2022-09-26T00:21:50.342Z,11.60
2022-09-26T00:24:18.495Z,11.70
2022-09-26T00:26:46.718Z,12.00
2022-09-26T00:29:14.757Z,12.30
2022-09-26T00:31:45.399Z,12.00
2022-09-26T00:34:18.954Z,12.90
2022-09-26T00:36:46.942Z,9.80
2022-09-26T00:39:16.676Z,11.70
2022-09-26T00:41:45.692Z,12.80
2022-09-26T00:44:57.017Z,12.80
2022-09-26T00:47:52.323Z,12.00
2022-09-26T00:50:24.925Z,12.50
2022-09-26T00:53:00.347Z,11.60
2022-09-26T00:55:32.459Z,12.20
2022-09-26T00:58:06.300Z,13.20
2022-09-26T01:00:34.661Z,12.20
2022-09-26T01:03:04.020Z,11.70
2022-09-26T01:05:32.690Z,12.70
2022-09-26T01:08:02.064Z,11.40
2022-09-26T01:10:30.240Z,9.80
2022-09-26T01:12:59.873Z,13.40
2022-09-26T01:15:27.669Z,12.60
2022-09-26T01:17:56.353Z,14.00
2022-09-26T01:20:27.302Z,13.20
2022-09-26T01:23:34.510Z,13.60
2022-09-26T01:26:20.599Z,12.80
2022-09-26T01:29:27.238Z,11.70
2022-09-26T01:32:59.134Z,12.50
2022-09-26T01:35:56.919Z,11.80
2022-09-26T01:38:51.850Z,13.40
2022-09-26T01:41:34.225Z,13.00
2022-09-26T01:44:27.932Z,12.10
2022-09-26T01:47:08.343Z,11.80
2022-09-26T01:49:53.769Z,10.90
2022-09-26T01:52:37.735Z,11.90
2022-09-26T01:55:12.594Z,10.70
2022-09-26T01:58:14.037Z,12.60
2022-09-26T02:00:47.070Z,12.20
2022-09-26T02:03:23.420Z,11.60
2022-09-26T02:06:03.357Z,12.50
2022-09-26T02:08:39.140Z,11.20
2022-09-26T02:11:13.020Z,10.30
2022-09-26T02:13:52.130Z,10.20
2022-09-26T02:16:26.950Z,11.20
2022-09-26T02:18:59.246Z,11.50
2022-09-26T02:21:28.688Z,11.10
2022-09-26T02:23:56.594Z,11.90
2022-09-26T02:26:24.427Z,13.70
2022-09-26T02:28:52.719Z,12.80
2022-09-26T02:31:24.681Z,11.90
2022-09-26T02:33:54.054Z,12.20
2022-09-26T02:36:24.341Z,12.20
2022-09-26T02:38:53.770Z,13.50
2022-09-26T02:41:47.265Z,11.50
2022-09-26T02:44:41.860Z,11.30
2022-09-26T02:47:55.129Z,10.80
2022-09-26T02:50:41.689Z,9.40
2022-09-26T02:53:33.300Z,9.40
2022-09-26T02:56:15.493Z,9.00
2022-09-26T02:59:28.759Z,9.80
2022-09-26T03:02:08.678Z,9.30
2022-09-26T03:05:00.928Z,9.90
2022-09-26T03:07:35.263Z,9.90
2022-09-26T03:10:07.602Z,9.70
2022-09-26T03:12:38.144Z,9.00
2022-09-26T03:15:08.492Z,9.60
2022-09-26T03:17:40.230Z,9.40
2022-09-26T03:20:17.485Z,8.40
2022-09-26T03:22:45.891Z,8.80
2022-09-26T03:25:18.723Z,9.30
2022-09-26T03:27:53.923Z,9.10
2022-09-26T03:30:23.268Z,8.40
2022-09-26T03:33:04.922Z,9.10
2022-09-26T03:35:32.753Z,9.70
2022-09-26T03:38:00.577Z,10.30
2022-09-26T03:40:29.578Z,10.60
2022-09-26T03:43:36.784Z,11.10
2022-09-26T03:46:07.025Z,12.10
2022-09-26T03:48:35.169Z,11.40
2022-09-26T03:51:10.192Z,12.60
2022-09-26T03:53:41.303Z,12.10
2022-09-26T03:56:18.226Z,11.60
2022-09-26T03:58:49.160Z,12.40
2022-09-26T04:03:50.939Z,11.70
2022-09-26T04:06:21.111Z,11.50
2022-09-26T04:08:52.454Z,12.70
2022-09-26T04:11:23.146Z,13.20
2022-09-26T04:13:53.529Z,14.40
2022-09-26T04:16:24.405Z,11.80
2022-09-26T04:18:58.198Z,12.10
2022-09-26T04:21:27.692Z,12.00
2022-09-26T04:23:56.559Z,12.70
2022-09-26T04:26:24.859Z,13.70
2022-09-26T04:28:56.704Z,14.30
2022-09-26T04:31:30.697Z,12.00
2022-09-26T04:34:05.204Z,14.40
2022-09-26T04:36:33.575Z,13.70
2022-09-26T04:39:01.883Z,12.10
2022-09-26T04:41:31.720Z,13.30
2022-09-26T04:44:02.056Z,14.20
2022-09-26T04:46:31.560Z,14.70
2022-09-26T04:49:01.759Z,13.60
2022-09-26T04:51:31.853Z,13.60
2022-09-26T04:53:59.963Z,14.00
2022-09-26T04:56:30.177Z,14.50
2022-09-26T04:58:59.347Z,13.20
2022-09-26T05:01:32.729Z,14.20
2022-09-26T05:04:07.412Z,13.30
2022-09-26T05:06:35.212Z,13.10
2022-09-26T05:09:04.611Z,13.30
2022-09-26T05:11:41.162Z,12.50
2022-09-26T05:14:11.199Z,11.10
2022-09-26T05:16:40.314Z,10.90
2022-09-26T05:19:10.236Z,12.30
2022-09-26T05:24:29.512Z,11.70
2022-09-26T05:26:57.481Z,10.00
2022-09-26T05:29:25.345Z,10.60
2022-09-26T05:31:57.205Z,8.90
2022-09-26T05:34:26.283Z,9.70
2022-09-26T05:36:54.475Z,9.80
2022-09-26T05:39:42.761Z,8.70
2022-09-26T05:42:12.208Z,10.60
2022-09-26T05:44:40.069Z,9.50
2022-09-26T05:47:09.748Z,11.50
2022-09-26T05:49:37.763Z,15.10
2022-09-26T05:52:06.368Z,12.70
2022-09-26T05:54:34.336Z,11.00
2022-09-26T05:57:04.248Z,10.50
2022-09-26T05:59:41.179Z,10.60
2022-09-26T06:02:27.525Z,11.50
2022-09-26T06:05:04.709Z,10.70
2022-09-26T06:08:00.039Z,11.50
2022-09-26T06:10:48.229Z,12.30
2022-09-26T06:13:16.054Z,11.60
2022-09-26T06:15:54.075Z,10.70
2022-09-26T06:18:22.031Z,12.00
2022-09-26T06:20:50.392Z,11.50
2022-09-26T06:23:18.372Z,12.50
2022-09-26T06:25:47.363Z,12.80
2022-09-26T06:28:15.323Z,12.60
2022-09-26T06:30:43.084Z,11.30
2022-09-26T06:33:13.316Z,11.10
2022-09-26T06:38:51.670Z,10.80
2022-09-26T06:41:19.689Z,11.40
2022-09-26T06:43:49.216Z,8.90
2022-09-26T06:46:44.146Z,7.20
2022-09-26T06:49:14.311Z,8.10
2022-09-26T06:52:02.843Z,7.80
2022-09-26T06:54:31.057Z,6.10
2022-09-26T06:56:58.957Z,7.40
2022-09-26T06:59:26.842Z,7.20
2022-09-26T07:02:04.340Z,6.60
2022-09-26T07:04:59.895Z,8.20
2022-09-26T07:07:40.050Z,8.70
2022-09-26T07:10:11.077Z,10.70
2022-09-26T07:13:04.248Z,9.20
2022-09-26T07:15:35.007Z,10.40
2022-09-26T07:18:10.215Z,9.20
2022-09-26T07:20:57.050Z,10.10
2022-09-26T07:23:51.149Z,9.90
2022-09-26T07:26:21.286Z,11.10
2022-09-26T07:28:54.268Z,8.70
2022-09-26T07:31:24.712Z,9.60
2022-09-26T07:34:08.994Z,8.70
2022-09-26T07:36:39.809Z,8.10
2022-09-26T07:39:09.059Z,9.80
2022-09-26T07:41:36.941Z,9.80
2022-09-26T07:44:59.305Z,8.90
2022-09-26T07:47:12.769Z,9.30
2022-09-26T07:50:14.698Z,9.60
2022-09-26T07:52:48.297Z,9.40
2022-09-26T07:55:19.173Z,10.40
2022-09-26T07:58:00.889Z,9.70
2022-09-26T08:00:45.656Z,11.00
2022-09-26T08:03:31.813Z,11.40
2022-09-26T08:06:03.283Z,10.60
2022-09-26T08:08:32.604Z,10.20
2022-09-26T08:11:03.900Z,10.00
2022-09-26T08:14:08.214Z,10.50
2022-09-26T08:17:01.924Z,10.00
2022-09-26T08:19:30.379Z,10.10
2022-09-26T08:21:59.288Z,10.20
2022-09-26T08:24:28.368Z,9.70
2022-09-26T08:27:14.422Z,9.50
2022-09-26T08:29:49.638Z,7.20
2022-09-26T08:32:21.065Z,9.40
2022-09-26T08:34:52.038Z,7.30
2022-09-26T08:37:31.994Z,7.70
2022-09-26T08:40:21.915Z,7.60
2022-09-26T08:43:37.756Z,7.70
2022-09-26T08:46:59.898Z,9.20
2022-09-26T08:50:00.450Z,7.60
2022-09-26T08:52:36.138Z,8.00
2022-09-26T08:55:31.429Z,6.30
2022-09-26T08:58:05.077Z,7.10
2022-09-26T09:00:38.319Z,6.80
2022-09-26T09:03:26.140Z,7.20
2022-09-26T09:06:11.598Z,6.10
2022-09-26T09:09:05.656Z,5.20
2022-09-26T09:12:06.430Z,7.10
2022-09-26T09:15:24.023Z,6.70
2022-09-26T09:18:45.442Z,6.50
2022-09-26T09:22:06.617Z,5.70
2022-09-26T09:24:55.528Z,6.40
2022-09-26T09:30:49.544Z,4.40
2022-09-26T09:33:51.833Z,4.60
2022-09-26T09:36:38.783Z,4.80
2022-09-26T09:39:33.551Z,4.60
2022-09-26T09:42:28.249Z,4.00
2022-09-26T09:45:00.578Z,4.10
2022-09-26T09:47:29.447Z,3.60
2022-09-26T09:49:59.919Z,3.50
2022-09-26T09:52:49.628Z,3.60
2022-09-26T09:55:47.186Z,3.90
2022-09-26T09:58:55.075Z,4.70
2022-09-26T10:01:35.420Z,4.30
2022-09-26T10:04:21.754Z,3.90
2022-09-26T10:06:51.204Z,3.20
2022-09-26T10:09:44.111Z,2.80
2022-09-26T10:12:35.113Z,2.70
2022-09-26T10:15:27.459Z,2.60
2022-09-26T10:18:26.825Z,2.90
2022-09-26T10:21:17.919Z,3.10
2022-09-26T10:23:49.444Z,3.10
2022-09-26T10:26:37.271Z,2.90
2022-09-26T10:29:20.379Z,3.50
2022-09-26T10:31:56.472Z,2.70
2022-09-26T10:34:30.310Z,2.70
2022-09-26T10:37:23.505Z,3.00
2022-09-26T10:40:17.415Z,3.00
2022-09-26T10:42:47.428Z,3.10
2022-09-26T10:45:18.132Z,3.80
2022-09-26T10:48:07.612Z,3.60
2022-09-26T10:51:00.715Z,3.40
2022-09-26T10:53:48.778Z,3.80
2022-09-26T10:56:26.359Z,4.30
2022-09-26T10:59:16.299Z,3.60
2022-09-26T11:01:50.568Z,4.20
2022-09-26T11:04:56.859Z,3.50
2022-09-26T11:07:57.119Z,3.60
2022-09-26T11:10:41.778Z,2.70
2022-09-26T11:13:39.150Z,4.00
2022-09-26T11:16:13.636Z,4.10
2022-09-26T11:18:54.447Z,3.50
2022-09-26T11:21:48.031Z,3.70
2022-09-26T11:24:42.718Z,3.50
2022-09-26T11:27:22.517Z,4.00
2022-09-26T11:30:02.432Z,4.10
2022-09-26T11:32:41.161Z,4.20
2022-09-26T11:35:43.607Z,4.30
2022-09-26T11:38:39.696Z,3.70
2022-09-26T11:41:38.405Z,3.60
2022-09-26T11:44:29.573Z,4.00
2022-09-26T11:47:44.521Z,4.50
2022-09-26T11:50:25.810Z,3.20
2022-09-26T11:54:15.344Z,3.90
2022-09-26T11:57:08.712Z,3.80
2022-09-26T12:00:03.731Z,4.20
2022-09-26T12:03:06.805Z,3.70
2022-09-26T12:05:56.828Z,3.20
2022-09-26T12:08:57.974Z,3.50
2022-09-26T12:11:55.864Z,3.40
2022-09-26T12:15:08.687Z,3.90
2022-09-26T12:18:14.964Z,3.30
2022-09-26T12:21:26.432Z,3.10
2022-09-26T12:26:50.649Z,3.20
2022-09-26T12:29:28.669Z,3.40
2022-09-26T12:32:38.562Z,3.00
2022-09-26T12:35:55.559Z,3.10
2022-09-26T12:38:33.924Z,3.40
2022-09-26T12:41:14.487Z,3.10
2022-09-26T12:44:05.294Z,4.60
2022-09-26T12:47:00.752Z,3.50
2022-09-26T12:50:19.764Z,2.90
2022-09-26T12:52:50.196Z,3.30
2022-09-26T12:55:50.898Z,2.90
2022-09-26T12:58:29.372Z,3.10
2022-09-26T13:01:28.411Z,3.40
2022-09-26T13:04:03.719Z,3.20
2022-09-26T13:07:17.723Z,3.30
2022-09-26T13:10:07.326Z,3.10
2022-09-26T13:12:47.378Z,3.30
2022-09-26T13:15:26.755Z,2.80
2022-09-26T13:18:01.017Z,2.90
2022-09-26T13:20:40.982Z,2.80
2022-09-26T13:23:57.953Z,2.50
2022-09-26T13:26:34.782Z,3.40
2022-09-26T13:29:37.643Z,6.30
2022-09-26T13:32:18.540Z,4.10
2022-09-26T13:35:00.873Z,3.60
2022-09-26T13:37:56.676Z,2.90
2022-09-26T13:40:51.436Z,3.00
2022-09-26T13:43:47.897Z,2.90
2022-09-26T13:46:36.226Z,3.10
2022-09-26T13:50:01.701Z,3.60
2022-09-26T13:53:16.344Z,3.50
2022-09-26T13:55:44.921Z,3.40
2022-09-26T13:58:26.554Z,3.50
2022-09-26T14:00:54.898Z,5.50
2022-09-26T14:03:36.400Z,5.70
2022-09-26T14:06:17.257Z,4.80
2022-09-26T14:09:18.660Z,3.30
2022-09-26T14:11:50.051Z,3.10
2022-09-26T14:14:26.611Z,3.40
2022-09-26T14:17:01.771Z,3.50
2022-09-26T14:19:42.494Z,3.80
2022-09-26T14:22:22.814Z,8.20
2022-09-26T14:24:51.436Z,9.60
2022-09-26T14:27:20.208Z,3.30
2022-09-26T14:30:22.772Z,3.60
2022-09-26T14:32:52.231Z,3.50
2022-09-26T14:35:27.074Z,3.50
2022-09-26T14:38:02.238Z,4.10
2022-09-26T14:40:35.261Z,3.20
2022-09-26T14:43:16.176Z,2.30
2022-09-26T14:45:48.427Z,3.30
2022-09-26T14:48:36.524Z,3.10
2022-09-26T14:51:24.685Z,2.60
2022-09-26T14:54:24.390Z,2.50
2022-09-26T14:57:05.732Z,2.30
2022-09-26T14:59:33.488Z,3.80
2022-09-26T15:02:20.664Z,3.60
2022-09-26T15:05:00.474Z,3.10
2022-09-26T15:07:33.781Z,2.00
2022-09-26T15:10:20.709Z,2.00
2022-09-26T15:13:16.732Z,2.30
2022-09-26T15:16:10.191Z,2.70
2022-09-26T15:18:47.178Z,2.10
2022-09-26T15:21:37.537Z,2.10
2022-09-26T15:26:50.191Z,1.90
2022-09-26T15:29:19.070Z,2.20
2022-09-26T15:31:48.455Z,2.40
2022-09-26T15:34:19.167Z,2.40
2022-09-26T15:36:55.995Z,2.30
2022-09-26T15:39:32.827Z,2.50
2022-09-26T15:42:29.846Z,2.60
2022-09-26T15:45:00.429Z,3.00
2022-09-26T15:50:41.721Z,3.10
2022-09-26T15:53:25.524Z,8.10
2022-09-26T15:56:02.097Z,4.90
2022-09-26T15:59:01.411Z,2.60
2022-09-26T16:01:31.550Z,3.20
2022-09-26T16:04:19.104Z,3.40
2022-09-26T16:07:02.329Z,3.10
2022-09-26T16:09:40.247Z,2.90
2022-09-26T16:12:24.839Z,2.90
2022-09-26T16:15:03.833Z,2.90
2022-09-26T16:17:35.905Z,2.90
2022-09-26T16:20:12.761Z,2.90
2022-09-26T16:23:00.361Z,3.40
2022-09-26T16:25:51.280Z,3.30
2022-09-26T16:28:23.030Z,3.40
2022-09-26T16:30:58.557Z,3.30
2022-09-26T16:33:32.411Z,4.30
2022-09-26T16:36:18.080Z,3.50
2022-09-26T16:38:56.326Z,3.80
2022-09-26T16:41:59.456Z,3.60
2022-09-26T16:44:35.480Z,4.00
2022-09-26T16:47:27.334Z,4.00
2022-09-26T16:49:55.365Z,3.80
2022-09-26T16:52:28.011Z,4.10
2022-09-26T16:54:59.091Z,4.20
2022-09-26T16:57:36.076Z,4.70
2022-09-26T17:00:37.564Z,5.10
2022-09-26T17:03:21.242Z,6.70
2022-09-26T17:05:50.523Z,34.30
2022-09-26T17:08:20.185Z,20.90
2022-09-26T17:10:48.455Z,10.50
2022-09-26T17:13:34.133Z,9.40
2022-09-26T17:16:21.690Z,8.70
2022-09-26T17:19:07.268Z,9.70
2022-09-26T17:21:42.631Z,11.70
2022-09-26T17:24:24.605Z,12.00
2022-09-26T17:26:59.360Z,11.10
2022-09-26T17:29:34.861Z,13.20
2022-09-26T17:32:09.570Z,12.10
2022-09-26T17:34:38.064Z,13.80
2022-09-26T17:37:06.102Z,13.80
2022-09-26T17:39:34.517Z,14.00
2022-09-26T17:42:05.899Z,14.30
2022-09-26T17:44:37.420Z,13.60
2022-09-26T17:47:08.077Z,13.00
2022-09-26T17:49:39.697Z,12.80
2022-09-26T17:52:34.041Z,12.90
2022-09-26T17:55:07.023Z,13.70
2022-09-26T17:57:41.608Z,15.10
2022-09-26T18:00:13.315Z,13.60
2022-09-26T18:02:44.877Z,14.80
2022-09-26T18:05:20.799Z,13.70
2022-09-26T18:07:53.353Z,15.30
2022-09-26T18:10:24.836Z,15.00
2022-09-26T18:12:59.729Z,14.00
2022-09-26T18:15:28.747Z,14.30
2022-09-26T18:17:59.205Z,15.90
2022-09-26T18:20:37.524Z,18.00
2022-09-26T18:23:09.856Z,18.30
2022-09-26T18:25:38.041Z,19.90
2022-09-26T18:28:11.551Z,19.20
2022-09-26T18:30:41.287Z,18.10
2022-09-26T18:33:12.490Z,19.50
2022-09-26T18:35:44.249Z,21.80
2022-09-26T18:38:13.454Z,16.90
2022-09-26T18:40:44.636Z,21.50
2022-09-26T18:43:18.782Z,27.90
2022-09-26T18:45:47.229Z,28.20
2022-09-26T18:48:25.519Z,30.30
2022-09-26T18:50:55.186Z,27.80
2022-09-26T18:53:27.607Z,23.90
2022-09-26T18:56:15.173Z,22.50
2022-09-26T18:58:44.477Z,28.80
2022-09-26T19:01:27.311Z,20.90
2022-09-26T19:03:58.902Z,19.80
2022-09-26T19:06:55.363Z,20.30
2022-09-26T19:09:23.595Z,22.40
2022-09-26T19:11:54.669Z,21.20
2022-09-26T19:14:26.442Z,21.20
2022-09-26T19:16:55.806Z,26.10
2022-09-26T19:19:24.651Z,23.30
2022-09-26T19:22:00.415Z,21.00
2022-09-26T19:24:47.077Z,17.10
2022-09-26T19:27:20.406Z,15.90
2022-09-26T19:30:05.393Z,15.80
2022-09-26T19:32:39.601Z,16.30
2022-09-26T19:35:21.567Z,16.40
2022-09-26T19:37:50.584Z,15.70
2022-09-26T19:40:20.553Z,17.90
2022-09-26T19:42:48.596Z,16.50
2022-09-26T19:45:18.572Z,47.00
2022-09-26T19:47:51.386Z,72.00
2022-09-26T19:50:22.471Z,21.60
2022-09-26T19:52:56.360Z,16.80
2022-09-26T19:55:27.488Z,14.90
2022-09-26T20:00:41.438Z,13.90
2022-09-26T20:03:22.638Z,13.90
2022-09-26T20:05:50.571Z,14.20
2022-09-26T20:08:22.412Z,13.90
2022-09-26T20:10:51.686Z,13.20
2022-09-26T20:13:21.436Z,13.80
2022-09-26T20:15:49.537Z,14.90
2022-09-26T20:18:22.065Z,15.80
2022-09-26T20:20:54.675Z,20.00
2022-09-26T20:23:26.350Z,22.80
2022-09-26T20:25:55.560Z,18.70
2022-09-26T20:28:23.609Z,16.80
2022-09-26T20:30:51.996Z,15.80
2022-09-26T20:33:22.652Z,34.10
2022-09-26T20:36:03.960Z,14.20
2022-09-26T20:38:48.086Z,13.10
2022-09-26T20:41:22.394Z,13.80
2022-09-26T20:43:56.943Z,11.80
2022-09-26T20:46:25.415Z,12.40
2022-09-26T20:48:53.679Z,12.00
2022-09-26T20:51:26.597Z,11.50
2022-09-26T20:53:54.886Z,11.60
2022-09-26T20:56:22.684Z,11.20
2022-09-26T20:58:50.853Z,11.70
2022-09-26T21:01:21.608Z,11.50
2022-09-26T21:03:53.096Z,12.70
2022-09-26T21:06:31.138Z,11.60
2022-09-26T21:08:59.680Z,11.00
2022-09-26T21:11:28.217Z,11.80
2022-09-26T21:13:56.077Z,11.10
2022-09-26T21:16:24.023Z,11.90
2022-09-26T21:18:52.770Z,11.70
2022-09-26T21:21:27.018Z,12.00
2022-09-26T21:24:01.665Z,11.60
2022-09-26T21:26:31.346Z,11.40
2022-09-26T21:29:01.597Z,11.40
2022-09-26T21:31:35.280Z,12.60
2022-09-26T21:34:03.548Z,12.80
2022-09-26T21:36:36.939Z,13.00
2022-09-26T21:39:05.108Z,13.80
2022-09-26T21:41:33.413Z,13.30
2022-09-26T21:44:06.065Z,13.00
2022-09-26T21:46:34.197Z,12.60
2022-09-26T21:49:02.008Z,13.00
2022-09-26T21:51:30.838Z,12.10
2022-09-26T21:54:07.157Z,11.90
2022-09-26T21:56:40.271Z,13.10
2022-09-26T21:59:08.494Z,12.80
2022-09-26T22:01:36.312Z,13.50
2022-09-26T22:04:04.236Z,12.00
2022-09-26T22:06:33.386Z,11.90
2022-09-26T22:09:01.302Z,12.40
2022-09-26T22:11:31.087Z,11.20
2022-09-26T22:13:59.185Z,13.50
2022-09-26T22:16:27.524Z,12.20
2022-09-26T22:18:55.398Z,11.50
2022-09-26T22:21:23.544Z,10.90
2022-09-26T22:23:52.121Z,11.60
2022-09-26T22:26:20.307Z,9.20
2022-09-26T22:28:49.297Z,10.00
2022-09-26T22:31:17.937Z,9.10
2022-09-26T22:33:45.790Z,8.60
2022-09-26T22:36:13.541Z,8.00
2022-09-26T22:38:41.401Z,7.90
2022-09-26T22:41:09.285Z,7.30
2022-09-26T22:43:37.118Z,7.70
2022-09-26T22:46:11.858Z,7.80
2022-09-26T22:48:43.088Z,7.60
2022-09-26T22:53:40.254Z,6.40
2022-09-26T22:56:11.537Z,7.10
2022-09-26T23:01:14.823Z,6.30
2022-09-26T23:03:42.837Z,5.90
2022-09-26T23:06:11.495Z,5.80
2022-09-26T23:08:39.906Z,4.70
2022-09-26T23:11:11.610Z,2.40
2022-09-26T23:13:39.680Z,2.20
2022-09-26T23:16:10.456Z,1.60
2022-09-26T23:18:40.334Z,1.20
2022-09-26T23:21:12.932Z,1.70
2022-09-26T23:23:43.263Z,2.30
2022-09-26T23:26:16.855Z,1.90
2022-09-26T23:28:44.655Z,1.90
2022-09-26T23:31:12.767Z,2.10
2022-09-26T23:33:41.001Z,1.70
2022-09-26T23:36:09.776Z,2.50
2022-09-26T23:38:39.144Z,2.50
2022-09-26T23:41:08.416Z,2.90
2022-09-26T23:43:37.558Z,3.00
2022-09-26T23:46:06.383Z,3.30
2022-09-26T23:48:35.198Z,3.60
2022-09-26T23:51:04.034Z,3.00
2022-09-26T23:53:32.384Z,2.70
2022-09-26T23:56:09.094Z,3.20
2022-09-26T23:58:37.825Z,2.70
